sensor_id;sensor_type;location;lat;lon;timestamp;P1;durP1;ratioP1;P2;durP2;ratioP2
34767;SDS011;21755;43.608;1.236;2022-07-24T00:00:57;5.63;;;3.00;;
34767;SDS011;21755;43.608;1.236;2022-07-24T00:03:23;2.95;;;2.40;;
34767;SDS011;21755;43.608;1.236;2022-07-24T00:05:51;4.70;;;2.35;;
34767;SDS011;21755;43.608;1.236;2022-07-24T00:08:18;2.88;;;2.17;;
34767;SDS011;21755;43.608;1.236;2022-07-24T00:10:44;4.53;;;2.45;;
34767;SDS011;21755;43.608;1.236;2022-07-24T00:13:10;3.50;;;2.40;;
34767;SDS011;21755;43.608;1.236;2022-07-24T00:15:35;4.47;;;2.20;;
34767;SDS011;21755;43.608;1.236;2022-07-24T00:18:01;4.40;;;2.53;;
34767;SDS011;21755;43.608;1.236;2022-07-24T00:20:27;4.38;;;2.42;;
34767;SDS011;21755;43.608;1.236;2022-07-24T00:22:53;4.38;;;2.45;;
34767;SDS011;21755;43.608;1.236;2022-07-24T00:25:19;4.80;;;2.55;;
34767;SDS011;21755;43.608;1.236;2022-07-24T00:27:45;3.67;;;2.05;;
34767;SDS011;21755;43.608;1.236;2022-07-24T00:30:11;6.93;;;2.80;;
34767;SDS011;21755;43.608;1.236;2022-07-24T00:32:38;4.65;;;2.33;;
34767;SDS011;21755;43.608;1.236;2022-07-24T00:35:04;5.47;;;2.40;;
34767;SDS011;21755;43.608;1.236;2022-07-24T00:37:30;7.35;;;2.47;;
34767;SDS011;21755;43.608;1.236;2022-07-24T00:39:56;3.60;;;2.53;;
34767;SDS011;21755;43.608;1.236;2022-07-24T00:42:22;4.22;;;2.15;;
34767;SDS011;21755;43.608;1.236;2022-07-24T00:44:48;2.92;;;2.05;;
34767;SDS011;21755;43.608;1.236;2022-07-24T00:47:14;4.63;;;2.35;;
34767;SDS011;21755;43.608;1.236;2022-07-24T00:49:40;3.15;;;2.80;;
34767;SDS011;21755;43.608;1.236;2022-07-24T00:52:06;3.92;;;2.50;;
34767;SDS011;21755;43.608;1.236;2022-07-24T00:54:32;3.40;;;2.25;;
34767;SDS011;21755;43.608;1.236;2022-07-24T00:56:58;5.45;;;2.58;;
34767;SDS011;21755;43.608;1.236;2022-07-24T00:59:24;4.13;;;2.40;;
34767;SDS011;21755;43.608;1.236;2022-07-24T01:01:50;2.47;;;2.28;;
34767;SDS011;21755;43.608;1.236;2022-07-24T01:04:16;5.90;;;2.53;;
34767;SDS011;21755;43.608;1.236;2022-07-24T01:06:43;5.80;;;2.22;;
34767;SDS011;21755;43.608;1.236;2022-07-24T01:09:10;4.13;;;2.40;;
34767;SDS011;21755;43.608;1.236;2022-07-24T01:11:37;6.13;;;2.85;;
34767;SDS011;21755;43.608;1.236;2022-07-24T01:14:04;3.72;;;2.45;;
34767;SDS011;21755;43.608;1.236;2022-07-24T01:16:34;4.75;;;2.53;;
34767;SDS011;21755;43.608;1.236;2022-07-24T01:19:00;4.07;;;2.60;;
34767;SDS011;21755;43.608;1.236;2022-07-24T01:21:26;2.70;;;2.30;;
34767;SDS011;21755;43.608;1.236;2022-07-24T01:23:52;3.42;;;2.33;;
34767;SDS011;21755;43.608;1.236;2022-07-24T01:26:18;4.65;;;2.65;;
34767;SDS011;21755;43.608;1.236;2022-07-24T01:28:44;3.92;;;2.30;;
34767;SDS011;21755;43.608;1.236;2022-07-24T01:31:10;8.75;;;2.30;;
34767;SDS011;21755;43.608;1.236;2022-07-24T01:33:36;3.25;;;2.25;;
34767;SDS011;21755;43.608;1.236;2022-07-24T01:36:02;3.75;;;2.28;;
34767;SDS011;21755;43.608;1.236;2022-07-24T01:38:28;5.07;;;2.67;;
34767;SDS011;21755;43.608;1.236;2022-07-24T01:40:54;3.33;;;2.40;;
34767;SDS011;21755;43.608;1.236;2022-07-24T01:43:20;6.15;;;3.35;;
34767;SDS011;21755;43.608;1.236;2022-07-24T01:45:46;4.13;;;2.50;;
34767;SDS011;21755;43.608;1.236;2022-07-24T01:48:12;4.93;;;2.50;;
34767;SDS011;21755;43.608;1.236;2022-07-24T01:50:38;4.40;;;2.30;;
34767;SDS011;21755;43.608;1.236;2022-07-24T01:53:04;3.17;;;2.40;;
34767;SDS011;21755;43.608;1.236;2022-07-24T01:55:30;3.13;;;2.83;;
34767;SDS011;21755;43.608;1.236;2022-07-24T01:57:56;6.40;;;2.22;;
34767;SDS011;21755;43.608;1.236;2022-07-24T02:00:22;4.93;;;2.38;;
34767;SDS011;21755;43.608;1.236;2022-07-24T02:02:48;4.00;;;2.30;;
34767;SDS011;21755;43.608;1.236;2022-07-24T02:05:15;7.10;;;3.05;;
34767;SDS011;21755;43.608;1.236;2022-07-24T02:07:41;2.80;;;2.50;;
34767;SDS011;21755;43.608;1.236;2022-07-24T02:10:08;4.07;;;2.42;;
34767;SDS011;21755;43.608;1.236;2022-07-24T02:12:36;4.32;;;2.50;;
34767;SDS011;21755;43.608;1.236;2022-07-24T02:15:02;3.55;;;2.35;;
34767;SDS011;21755;43.608;1.236;2022-07-24T02:17:29;2.42;;;2.10;;
34767;SDS011;21755;43.608;1.236;2022-07-24T02:19:55;3.63;;;2.67;;
34767;SDS011;21755;43.608;1.236;2022-07-24T02:22:21;3.95;;;2.70;;
34767;SDS011;21755;43.608;1.236;2022-07-24T02:24:47;5.90;;;2.10;;
34767;SDS011;21755;43.608;1.236;2022-07-24T02:27:13;3.28;;;2.72;;
34767;SDS011;21755;43.608;1.236;2022-07-24T02:29:38;6.07;;;2.75;;
34767;SDS011;21755;43.608;1.236;2022-07-24T02:32:05;3.97;;;2.90;;
34767;SDS011;21755;43.608;1.236;2022-07-24T02:34:32;7.32;;;2.83;;
34767;SDS011;21755;43.608;1.236;2022-07-24T02:36:58;3.85;;;2.42;;
34767;SDS011;21755;43.608;1.236;2022-07-24T02:39:24;2.72;;;2.47;;
34767;SDS011;21755;43.608;1.236;2022-07-24T02:41:50;6.10;;;2.30;;
34767;SDS011;21755;43.608;1.236;2022-07-24T02:44:16;4.38;;;2.13;;
34767;SDS011;21755;43.608;1.236;2022-07-24T02:46:41;5.10;;;2.47;;
34767;SDS011;21755;43.608;1.236;2022-07-24T02:49:07;4.07;;;2.40;;
34767;SDS011;21755;43.608;1.236;2022-07-24T02:51:33;4.32;;;2.35;;
34767;SDS011;21755;43.608;1.236;2022-07-24T02:53:59;6.00;;;2.25;;
34767;SDS011;21755;43.608;1.236;2022-07-24T02:56:25;2.35;;;2.15;;
34767;SDS011;21755;43.608;1.236;2022-07-24T02:58:51;2.63;;;2.42;;
34767;SDS011;21755;43.608;1.236;2022-07-24T03:01:17;4.93;;;2.63;;
34767;SDS011;21755;43.608;1.236;2022-07-24T03:03:43;4.25;;;2.50;;
34767;SDS011;21755;43.608;1.236;2022-07-24T03:06:09;4.55;;;2.33;;
34767;SDS011;21755;43.608;1.236;2022-07-24T03:08:35;3.22;;;2.13;;
34767;SDS011;21755;43.608;1.236;2022-07-24T03:11:00;4.10;;;2.38;;
34767;SDS011;21755;43.608;1.236;2022-07-24T03:13:26;3.28;;;2.53;;
34767;SDS011;21755;43.608;1.236;2022-07-24T03:15:52;2.72;;;2.38;;
34767;SDS011;21755;43.608;1.236;2022-07-24T03:18:18;3.67;;;2.28;;
34767;SDS011;21755;43.608;1.236;2022-07-24T03:20:44;6.35;;;2.53;;
34767;SDS011;21755;43.608;1.236;2022-07-24T03:23:10;3.50;;;2.50;;
34767;SDS011;21755;43.608;1.236;2022-07-24T03:25:36;2.58;;;2.30;;
34767;SDS011;21755;43.608;1.236;2022-07-24T03:28:02;7.07;;;2.70;;
34767;SDS011;21755;43.608;1.236;2022-07-24T03:30:28;2.30;;;2.10;;
34767;SDS011;21755;43.608;1.236;2022-07-24T03:32:54;5.45;;;2.22;;
34767;SDS011;21755;43.608;1.236;2022-07-24T03:35:20;3.45;;;2.28;;
34767;SDS011;21755;43.608;1.236;2022-07-24T03:37:46;5.60;;;2.00;;
34767;SDS011;21755;43.608;1.236;2022-07-24T03:40:12;6.25;;;2.72;;
34767;SDS011;21755;43.608;1.236;2022-07-24T03:42:38;6.53;;;2.30;;
34767;SDS011;21755;43.608;1.236;2022-07-24T03:45:04;4.93;;;2.47;;
34767;SDS011;21755;43.608;1.236;2022-07-24T03:47:30;3.28;;;2.28;;
34767;SDS011;21755;43.608;1.236;2022-07-24T03:49:56;5.47;;;2.33;;
34767;SDS011;21755;43.608;1.236;2022-07-24T03:52:22;4.43;;;2.53;;
34767;SDS011;21755;43.608;1.236;2022-07-24T03:54:48;2.20;;;2.00;;
34767;SDS011;21755;43.608;1.236;2022-07-24T03:57:14;3.90;;;2.50;;
34767;SDS011;21755;43.608;1.236;2022-07-24T03:59:40;4.07;;;2.30;;
34767;SDS011;21755;43.608;1.236;2022-07-24T04:02:05;4.10;;;2.70;;
34767;SDS011;21755;43.608;1.236;2022-07-24T04:04:32;3.97;;;2.22;;
34767;SDS011;21755;43.608;1.236;2022-07-24T04:06:58;5.05;;;2.80;;
34767;SDS011;21755;43.608;1.236;2022-07-24T04:09:24;2.83;;;2.20;;
34767;SDS011;21755;43.608;1.236;2022-07-24T04:11:50;3.00;;;2.60;;
34767;SDS011;21755;43.608;1.236;2022-07-24T04:14:16;2.92;;;2.53;;
34767;SDS011;21755;43.608;1.236;2022-07-24T04:16:42;4.00;;;2.55;;
34767;SDS011;21755;43.608;1.236;2022-07-24T04:19:07;5.35;;;2.58;;
34767;SDS011;21755;43.608;1.236;2022-07-24T04:21:33;2.70;;;1.73;;
34767;SDS011;21755;43.608;1.236;2022-07-24T04:23:59;3.83;;;2.22;;
34767;SDS011;21755;43.608;1.236;2022-07-24T04:26:25;5.18;;;2.35;;
34767;SDS011;21755;43.608;1.236;2022-07-24T04:28:52;2.75;;;2.17;;
34767;SDS011;21755;43.608;1.236;2022-07-24T04:31:18;2.70;;;2.50;;
34767;SDS011;21755;43.608;1.236;2022-07-24T04:33:44;5.50;;;2.70;;
34767;SDS011;21755;43.608;1.236;2022-07-24T04:36:10;2.45;;;2.25;;
34767;SDS011;21755;43.608;1.236;2022-07-24T04:38:36;2.45;;;2.25;;
34767;SDS011;21755;43.608;1.236;2022-07-24T04:41:02;3.38;;;2.83;;
34767;SDS011;21755;43.608;1.236;2022-07-24T04:43:28;6.00;;;3.08;;
34767;SDS011;21755;43.608;1.236;2022-07-24T04:45:54;4.53;;;2.50;;
34767;SDS011;21755;43.608;1.236;2022-07-24T04:48:20;2.42;;;2.22;;
34767;SDS011;21755;43.608;1.236;2022-07-24T04:50:47;3.88;;;2.70;;
34767;SDS011;21755;43.608;1.236;2022-07-24T04:53:13;2.67;;;2.17;;
34767;SDS011;21755;43.608;1.236;2022-07-24T04:55:39;2.42;;;2.08;;
34767;SDS011;21755;43.608;1.236;2022-07-24T04:58:05;5.28;;;2.38;;
34767;SDS011;21755;43.608;1.236;2022-07-24T05:00:31;4.03;;;2.63;;
34767;SDS011;21755;43.608;1.236;2022-07-24T05:02:57;3.80;;;2.30;;
34767;SDS011;21755;43.608;1.236;2022-07-24T05:05:23;2.47;;;2.28;;
34767;SDS011;21755;43.608;1.236;2022-07-24T05:07:49;3.67;;;2.38;;
34767;SDS011;21755;43.608;1.236;2022-07-24T05:10:15;4.57;;;2.60;;
34767;SDS011;21755;43.608;1.236;2022-07-24T05:12:41;2.58;;;2.30;;
34767;SDS011;21755;43.608;1.236;2022-07-24T05:15:07;2.63;;;2.40;;
34767;SDS011;21755;43.608;1.236;2022-07-24T05:17:34;3.50;;;2.78;;
34767;SDS011;21755;43.608;1.236;2022-07-24T05:20:01;2.92;;;2.55;;
34767;SDS011;21755;43.608;1.236;2022-07-24T05:22:30;5.43;;;2.97;;
34767;SDS011;21755;43.608;1.236;2022-07-24T05:24:56;4.85;;;2.75;;
34767;SDS011;21755;43.608;1.236;2022-07-24T05:27:22;2.72;;;2.53;;
34767;SDS011;21755;43.608;1.236;2022-07-24T05:29:48;3.45;;;2.60;;
34767;SDS011;21755;43.608;1.236;2022-07-24T05:32:14;3.08;;;2.50;;
34767;SDS011;21755;43.608;1.236;2022-07-24T05:34:40;3.33;;;2.35;;
34767;SDS011;21755;43.608;1.236;2022-07-24T05:37:07;3.92;;;2.53;;
34767;SDS011;21755;43.608;1.236;2022-07-24T05:39:34;3.10;;;2.28;;
34767;SDS011;21755;43.608;1.236;2022-07-24T05:42:00;3.13;;;2.55;;
34767;SDS011;21755;43.608;1.236;2022-07-24T05:44:26;5.03;;;2.55;;
34767;SDS011;21755;43.608;1.236;2022-07-24T05:46:52;4.57;;;2.90;;
34767;SDS011;21755;43.608;1.236;2022-07-24T05:49:17;3.25;;;2.70;;
34767;SDS011;21755;43.608;1.236;2022-07-24T05:51:43;2.80;;;2.50;;
34767;SDS011;21755;43.608;1.236;2022-07-24T05:54:09;3.42;;;2.67;;
34767;SDS011;21755;43.608;1.236;2022-07-24T05:56:35;3.72;;;3.05;;
34767;SDS011;21755;43.608;1.236;2022-07-24T05:59:01;6.82;;;2.72;;
34767;SDS011;21755;43.608;1.236;2022-07-24T06:01:27;5.68;;;2.80;;
34767;SDS011;21755;43.608;1.236;2022-07-24T06:03:53;2.67;;;2.47;;
34767;SDS011;21755;43.608;1.236;2022-07-24T06:06:19;4.72;;;2.70;;
34767;SDS011;21755;43.608;1.236;2022-07-24T06:08:45;4.35;;;2.75;;
34767;SDS011;21755;43.608;1.236;2022-07-24T06:11:11;3.95;;;2.75;;
34767;SDS011;21755;43.608;1.236;2022-07-24T06:13:37;3.50;;;3.03;;
34767;SDS011;21755;43.608;1.236;2022-07-24T06:16:03;4.93;;;2.60;;
34767;SDS011;21755;43.608;1.236;2022-07-24T06:18:29;3.83;;;2.67;;
34767;SDS011;21755;43.608;1.236;2022-07-24T06:20:55;11.73;;;3.40;;
34767;SDS011;21755;43.608;1.236;2022-07-24T06:23:21;3.95;;;3.00;;
34767;SDS011;21755;43.608;1.236;2022-07-24T06:25:47;3.30;;;2.72;;
34767;SDS011;21755;43.608;1.236;2022-07-24T06:28:13;6.93;;;3.13;;
34767;SDS011;21755;43.608;1.236;2022-07-24T06:30:39;4.28;;;3.05;;
34767;SDS011;21755;43.608;1.236;2022-07-24T06:33:05;4.68;;;2.75;;
34767;SDS011;21755;43.608;1.236;2022-07-24T06:35:31;8.35;;;3.15;;
34767;SDS011;21755;43.608;1.236;2022-07-24T06:37:58;7.18;;;2.83;;
34767;SDS011;21755;43.608;1.236;2022-07-24T06:40:25;4.57;;;2.90;;
34767;SDS011;21755;43.608;1.236;2022-07-24T06:42:52;3.55;;;2.92;;
34767;SDS011;21755;43.608;1.236;2022-07-24T06:45:18;6.45;;;2.60;;
34767;SDS011;21755;43.608;1.236;2022-07-24T06:47:44;5.10;;;3.22;;
34767;SDS011;21755;43.608;1.236;2022-07-24T06:50:11;7.75;;;2.95;;
34767;SDS011;21755;43.608;1.236;2022-07-24T06:52:38;5.80;;;3.30;;
34767;SDS011;21755;43.608;1.236;2022-07-24T06:55:04;5.57;;;2.78;;
34767;SDS011;21755;43.608;1.236;2022-07-24T06:57:31;8.18;;;3.00;;
34767;SDS011;21755;43.608;1.236;2022-07-24T06:59:58;6.80;;;3.00;;
34767;SDS011;21755;43.608;1.236;2022-07-24T07:02:23;5.45;;;3.17;;
34767;SDS011;21755;43.608;1.236;2022-07-24T07:04:49;5.03;;;3.08;;
34767;SDS011;21755;43.608;1.236;2022-07-24T07:07:16;5.90;;;3.00;;
34767;SDS011;21755;43.608;1.236;2022-07-24T07:09:42;8.52;;;3.15;;
34767;SDS011;21755;43.608;1.236;2022-07-24T07:12:08;7.93;;;3.42;;
34767;SDS011;21755;43.608;1.236;2022-07-24T07:14:35;4.65;;;3.35;;
34767;SDS011;21755;43.608;1.236;2022-07-24T07:17:01;5.38;;;3.17;;
34767;SDS011;21755;43.608;1.236;2022-07-24T07:19:27;7.93;;;2.80;;
34767;SDS011;21755;43.608;1.236;2022-07-24T07:21:53;5.40;;;2.97;;
34767;SDS011;21755;43.608;1.236;2022-07-24T07:24:18;3.83;;;2.85;;
34767;SDS011;21755;43.608;1.236;2022-07-24T07:26:44;5.28;;;3.33;;
34767;SDS011;21755;43.608;1.236;2022-07-24T07:29:10;6.03;;;3.05;;
34767;SDS011;21755;43.608;1.236;2022-07-24T07:31:36;7.03;;;3.20;;
34767;SDS011;21755;43.608;1.236;2022-07-24T07:34:02;7.72;;;3.45;;
34767;SDS011;21755;43.608;1.236;2022-07-24T07:36:28;3.92;;;3.03;;
34767;SDS011;21755;43.608;1.236;2022-07-24T07:38:54;4.85;;;2.53;;
34767;SDS011;21755;43.608;1.236;2022-07-24T07:41:23;3.30;;;2.97;;
34767;SDS011;21755;43.608;1.236;2022-07-24T07:43:49;4.00;;;3.15;;
34767;SDS011;21755;43.608;1.236;2022-07-24T07:46:15;4.90;;;3.20;;
34767;SDS011;21755;43.608;1.236;2022-07-24T07:48:42;5.43;;;3.53;;
34767;SDS011;21755;43.608;1.236;2022-07-24T07:51:08;4.57;;;3.63;;
34767;SDS011;21755;43.608;1.236;2022-07-24T07:53:34;6.80;;;3.40;;
34767;SDS011;21755;43.608;1.236;2022-07-24T07:56:00;3.83;;;3.38;;
34767;SDS011;21755;43.608;1.236;2022-07-24T07:58:26;6.30;;;3.58;;
34767;SDS011;21755;43.608;1.236;2022-07-24T08:00:52;11.88;;;4.35;;
34767;SDS011;21755;43.608;1.236;2022-07-24T08:03:18;15.18;;;4.47;;
34767;SDS011;21755;43.608;1.236;2022-07-24T08:05:44;10.30;;;4.15;;
34767;SDS011;21755;43.608;1.236;2022-07-24T08:08:11;8.02;;;4.25;;
34767;SDS011;21755;43.608;1.236;2022-07-24T08:10:37;14.48;;;3.78;;
34767;SDS011;21755;43.608;1.236;2022-07-24T08:13:03;13.13;;;3.88;;
34767;SDS011;21755;43.608;1.236;2022-07-24T08:15:29;10.32;;;4.50;;
34767;SDS011;21755;43.608;1.236;2022-07-24T08:17:56;4.28;;;3.40;;
34767;SDS011;21755;43.608;1.236;2022-07-24T08:20:23;10.30;;;4.15;;
34767;SDS011;21755;43.608;1.236;2022-07-24T08:22:50;6.82;;;3.60;;
34767;SDS011;21755;43.608;1.236;2022-07-24T08:25:17;5.60;;;3.97;;
34767;SDS011;21755;43.608;1.236;2022-07-24T08:27:43;6.82;;;4.13;;
34767;SDS011;21755;43.608;1.236;2022-07-24T08:30:10;6.90;;;3.55;;
34767;SDS011;21755;43.608;1.236;2022-07-24T08:32:37;7.40;;;3.65;;
34767;SDS011;21755;43.608;1.236;2022-07-24T08:35:03;7.30;;;3.88;;
34767;SDS011;21755;43.608;1.236;2022-07-24T08:37:30;7.20;;;4.45;;
34767;SDS011;21755;43.608;1.236;2022-07-24T08:40:00;6.53;;;4.47;;
34767;SDS011;21755;43.608;1.236;2022-07-24T08:42:26;6.63;;;3.97;;
34767;SDS011;21755;43.608;1.236;2022-07-24T08:44:52;16.75;;;4.88;;
34767;SDS011;21755;43.608;1.236;2022-07-24T08:47:18;5.20;;;4.30;;
34767;SDS011;21755;43.608;1.236;2022-07-24T08:49:45;7.38;;;4.10;;
34767;SDS011;21755;43.608;1.236;2022-07-24T08:52:13;7.40;;;4.30;;
34767;SDS011;21755;43.608;1.236;2022-07-24T08:54:40;11.07;;;4.30;;
34767;SDS011;21755;43.608;1.236;2022-07-24T08:57:06;8.48;;;4.25;;
34767;SDS011;21755;43.608;1.236;2022-07-24T08:59:32;5.22;;;3.65;;
34767;SDS011;21755;43.608;1.236;2022-07-24T09:02:00;7.97;;;4.60;;
34767;SDS011;21755;43.608;1.236;2022-07-24T09:04:45;4.75;;;4.22;;
34767;SDS011;21755;43.608;1.236;2022-07-24T09:07:17;5.18;;;4.03;;
34767;SDS011;21755;43.608;1.236;2022-07-24T09:10:00;5.13;;;4.68;;
34767;SDS011;21755;43.608;1.236;2022-07-24T09:12:29;5.68;;;5.05;;
34767;SDS011;21755;43.608;1.236;2022-07-24T09:14:57;10.43;;;4.65;;
34767;SDS011;21755;43.608;1.236;2022-07-24T09:17:23;5.45;;;4.80;;
34767;SDS011;21755;43.608;1.236;2022-07-24T09:19:59;6.20;;;4.78;;
34767;SDS011;21755;43.608;1.236;2022-07-24T09:22:37;8.55;;;4.95;;
34767;SDS011;21755;43.608;1.236;2022-07-24T09:27:39;6.07;;;4.30;;
34767;SDS011;21755;43.608;1.236;2022-07-24T09:32:59;5.20;;;4.63;;
34767;SDS011;21755;43.608;1.236;2022-07-24T09:35:30;7.30;;;4.38;;
34767;SDS011;21755;43.608;1.236;2022-07-24T09:38:08;7.25;;;4.65;;
34767;SDS011;21755;43.608;1.236;2022-07-24T09:40:36;4.82;;;4.25;;
34767;SDS011;21755;43.608;1.236;2022-07-24T09:45:59;6.50;;;4.45;;
34767;SDS011;21755;43.608;1.236;2022-07-24T09:50:59;7.88;;;4.30;;
34767;SDS011;21755;43.608;1.236;2022-07-24T09:53:44;11.43;;;4.43;;
34767;SDS011;21755;43.608;1.236;2022-07-24T09:56:14;9.50;;;5.05;;
34767;SDS011;21755;43.608;1.236;2022-07-24T10:01:10;6.43;;;4.47;;
34767;SDS011;21755;43.608;1.236;2022-07-24T10:03:38;8.13;;;4.88;;
34767;SDS011;21755;43.608;1.236;2022-07-24T10:06:06;8.43;;;4.95;;
34767;SDS011;21755;43.608;1.236;2022-07-24T10:08:37;8.27;;;5.40;;
34767;SDS011;21755;43.608;1.236;2022-07-24T10:11:05;8.30;;;5.03;;
34767;SDS011;21755;43.608;1.236;2022-07-24T10:13:31;8.20;;;4.68;;
34767;SDS011;21755;43.608;1.236;2022-07-24T10:16:11;5.93;;;5.00;;
34767;SDS011;21755;43.608;1.236;2022-07-24T10:21:25;9.27;;;5.07;;
34767;SDS011;21755;43.608;1.236;2022-07-24T10:26:38;6.85;;;5.30;;
34767;SDS011;21755;43.608;1.236;2022-07-24T10:29:09;7.25;;;4.68;;
34767;SDS011;21755;43.608;1.236;2022-07-24T10:31:37;5.50;;;4.53;;
34767;SDS011;21755;43.608;1.236;2022-07-24T10:37:07;8.80;;;4.85;;
34767;SDS011;21755;43.608;1.236;2022-07-24T10:42:15;5.45;;;4.63;;
34767;SDS011;21755;43.608;1.236;2022-07-24T10:44:41;5.15;;;4.45;;
34767;SDS011;21755;43.608;1.236;2022-07-24T10:47:10;5.50;;;4.57;;
34767;SDS011;21755;43.608;1.236;2022-07-24T10:49:48;7.22;;;4.55;;
34767;SDS011;21755;43.608;1.236;2022-07-24T10:52:28;6.47;;;4.38;;
34767;SDS011;21755;43.608;1.236;2022-07-24T11:00:38;6.20;;;4.63;;
34767;SDS011;21755;43.608;1.236;2022-07-24T11:03:17;6.13;;;4.70;;
34767;SDS011;21755;43.608;1.236;2022-07-24T11:08:37;6.90;;;4.28;;
34767;SDS011;21755;43.608;1.236;2022-07-24T11:11:26;5.18;;;4.68;;
34767;SDS011;21755;43.608;1.236;2022-07-24T11:13:53;6.82;;;6.20;;
34767;SDS011;21755;43.608;1.236;2022-07-24T11:16:25;5.53;;;4.63;;
34767;SDS011;21755;43.608;1.236;2022-07-24T11:21:35;10.13;;;4.40;;
34767;SDS011;21755;43.608;1.236;2022-07-24T11:26:41;6.45;;;4.55;;
34767;SDS011;21755;43.608;1.236;2022-07-24T11:34:25;5.53;;;4.93;;
34767;SDS011;21755;43.608;1.236;2022-07-24T11:36:53;6.63;;;4.40;;
34767;SDS011;21755;43.608;1.236;2022-07-24T11:39:26;12.93;;;4.35;;
34767;SDS011;21755;43.608;1.236;2022-07-24T11:42:05;5.90;;;5.10;;
34767;SDS011;21755;43.608;1.236;2022-07-24T11:44:36;6.53;;;4.60;;
34767;SDS011;21755;43.608;1.236;2022-07-24T11:47:15;8.17;;;5.20;;
34767;SDS011;21755;43.608;1.236;2022-07-24T11:49:47;5.22;;;4.55;;
34767;SDS011;21755;43.608;1.236;2022-07-24T11:55:09;7.35;;;6.05;;
34767;SDS011;21755;43.608;1.236;2022-07-24T11:57:40;5.57;;;4.55;;
34767;SDS011;21755;43.608;1.236;2022-07-24T12:00:10;6.65;;;4.65;;
34767;SDS011;21755;43.608;1.236;2022-07-24T12:02:51;5.90;;;5.30;;
34767;SDS011;21755;43.608;1.236;2022-07-24T12:07:52;5.00;;;4.60;;
34767;SDS011;21755;43.608;1.236;2022-07-24T12:10:21;9.52;;;4.97;;
34767;SDS011;21755;43.608;1.236;2022-07-24T12:12:48;5.03;;;4.38;;
34767;SDS011;21755;43.608;1.236;2022-07-24T12:15:16;7.50;;;5.05;;
34767;SDS011;21755;43.608;1.236;2022-07-24T12:17:55;9.52;;;4.93;;
34767;SDS011;21755;43.608;1.236;2022-07-24T12:20:27;8.27;;;5.03;;
34767;SDS011;21755;43.608;1.236;2022-07-24T12:22:56;5.53;;;4.93;;
34767;SDS011;21755;43.608;1.236;2022-07-24T12:25:23;9.30;;;5.32;;
34767;SDS011;21755;43.608;1.236;2022-07-24T12:27:50;7.43;;;5.05;;
34767;SDS011;21755;43.608;1.236;2022-07-24T12:30:27;8.27;;;5.43;;
34767;SDS011;21755;43.608;1.236;2022-07-24T12:33:04;6.88;;;5.35;;
34767;SDS011;21755;43.608;1.236;2022-07-24T12:35:35;4.93;;;4.50;;
34767;SDS011;21755;43.608;1.236;2022-07-24T12:38:50;5.75;;;5.22;;
34767;SDS011;21755;43.608;1.236;2022-07-24T12:41:19;6.25;;;4.95;;
34767;SDS011;21755;43.608;1.236;2022-07-24T12:43:51;6.20;;;5.60;;
34767;SDS011;21755;43.608;1.236;2022-07-24T12:46:20;6.57;;;5.45;;
34767;SDS011;21755;43.608;1.236;2022-07-24T12:48:58;5.70;;;5.10;;
34767;SDS011;21755;43.608;1.236;2022-07-24T12:51:26;7.68;;;4.70;;
34767;SDS011;21755;43.608;1.236;2022-07-24T12:53:53;7.00;;;5.38;;
34767;SDS011;21755;43.608;1.236;2022-07-24T12:56:20;5.95;;;5.35;;
34767;SDS011;21755;43.608;1.236;2022-07-24T12:58:49;5.45;;;4.95;;
34767;SDS011;21755;43.608;1.236;2022-07-24T13:01:24;7.00;;;4.90;;
34767;SDS011;21755;43.608;1.236;2022-07-24T13:03:53;6.03;;;5.20;;
34767;SDS011;21755;43.608;1.236;2022-07-24T13:06:32;8.57;;;4.90;;
34767;SDS011;21755;43.608;1.236;2022-07-24T13:08:59;6.07;;;4.60;;
34767;SDS011;21755;43.608;1.236;2022-07-24T13:11:26;6.75;;;5.10;;
34767;SDS011;21755;43.608;1.236;2022-07-24T13:13:52;6.07;;;5.10;;
34767;SDS011;21755;43.608;1.236;2022-07-24T13:16:19;5.72;;;5.22;;
34767;SDS011;21755;43.608;1.236;2022-07-24T13:18:49;5.55;;;4.97;;
34767;SDS011;21755;43.608;1.236;2022-07-24T13:21:19;8.43;;;5.72;;
34767;SDS011;21755;43.608;1.236;2022-07-24T13:23:45;7.00;;;5.68;;
34767;SDS011;21755;43.608;1.236;2022-07-24T13:26:11;6.97;;;5.43;;
34767;SDS011;21755;43.608;1.236;2022-07-24T13:28:37;8.55;;;6.18;;
34767;SDS011;21755;43.608;1.236;2022-07-24T13:31:03;8.75;;;5.00;;
34767;SDS011;21755;43.608;1.236;2022-07-24T13:33:30;7.07;;;5.65;;
34767;SDS011;21755;43.608;1.236;2022-07-24T13:35:56;8.43;;;5.95;;
34767;SDS011;21755;43.608;1.236;2022-07-24T13:38:23;5.97;;;5.38;;
34767;SDS011;21755;43.608;1.236;2022-07-24T13:40:49;8.25;;;6.70;;
34767;SDS011;21755;43.608;1.236;2022-07-24T13:43:15;8.00;;;5.90;;
34767;SDS011;21755;43.608;1.236;2022-07-24T13:45:41;7.10;;;5.70;;
34767;SDS011;21755;43.608;1.236;2022-07-24T13:48:07;5.50;;;5.00;;
34767;SDS011;21755;43.608;1.236;2022-07-24T13:50:33;6.85;;;5.82;;
34767;SDS011;21755;43.608;1.236;2022-07-24T13:52:59;12.52;;;6.53;;
34767;SDS011;21755;43.608;1.236;2022-07-24T13:55:25;9.63;;;5.32;;
34767;SDS011;21755;43.608;1.236;2022-07-24T13:57:51;6.30;;;5.47;;
34767;SDS011;21755;43.608;1.236;2022-07-24T14:00:17;6.97;;;5.40;;
34767;SDS011;21755;43.608;1.236;2022-07-24T14:02:43;8.32;;;6.25;;
34767;SDS011;21755;43.608;1.236;2022-07-24T14:05:09;7.45;;;5.72;;
34767;SDS011;21755;43.608;1.236;2022-07-24T14:07:35;7.60;;;5.78;;
34767;SDS011;21755;43.608;1.236;2022-07-24T14:10:01;11.05;;;6.10;;
34767;SDS011;21755;43.608;1.236;2022-07-24T14:12:27;10.98;;;6.20;;
34767;SDS011;21755;43.608;1.236;2022-07-24T14:14:53;6.63;;;6.03;;
34767;SDS011;21755;43.608;1.236;2022-07-24T14:17:19;8.73;;;5.72;;
34767;SDS011;21755;43.608;1.236;2022-07-24T14:19:45;12.32;;;6.50;;
34767;SDS011;21755;43.608;1.236;2022-07-24T14:22:11;9.07;;;6.35;;
34767;SDS011;21755;43.608;1.236;2022-07-24T14:24:37;7.97;;;5.97;;
34767;SDS011;21755;43.608;1.236;2022-07-24T14:27:03;7.60;;;6.25;;
34767;SDS011;21755;43.608;1.236;2022-07-24T14:29:29;7.55;;;5.35;;
34767;SDS011;21755;43.608;1.236;2022-07-24T14:31:55;6.10;;;5.60;;
34767;SDS011;21755;43.608;1.236;2022-07-24T14:34:21;5.97;;;5.38;;
34767;SDS011;21755;43.608;1.236;2022-07-24T14:36:47;11.10;;;5.40;;
34767;SDS011;21755;43.608;1.236;2022-07-24T14:39:13;8.40;;;5.72;;
34767;SDS011;21755;43.608;1.236;2022-07-24T14:41:39;6.93;;;5.90;;
34767;SDS011;21755;43.608;1.236;2022-07-24T14:44:05;9.90;;;5.43;;
34767;SDS011;21755;43.608;1.236;2022-07-24T14:46:31;9.32;;;6.43;;
34767;SDS011;21755;43.608;1.236;2022-07-24T14:48:57;12.85;;;6.28;;
34767;SDS011;21755;43.608;1.236;2022-07-24T14:51:23;6.38;;;5.72;;
34767;SDS011;21755;43.608;1.236;2022-07-24T14:53:49;10.88;;;6.18;;
34767;SDS011;21755;43.608;1.236;2022-07-24T14:56:15;6.95;;;6.18;;
34767;SDS011;21755;43.608;1.236;2022-07-24T14:58:41;7.22;;;6.22;;
34767;SDS011;21755;43.608;1.236;2022-07-24T15:01:07;5.90;;;5.40;;
34767;SDS011;21755;43.608;1.236;2022-07-24T15:03:33;9.93;;;6.22;;
34767;SDS011;21755;43.608;1.236;2022-07-24T15:05:59;8.75;;;5.68;;
34767;SDS011;21755;43.608;1.236;2022-07-24T15:08:24;7.25;;;5.97;;
34767;SDS011;21755;43.608;1.236;2022-07-24T15:10:50;8.93;;;5.80;;
34767;SDS011;21755;43.608;1.236;2022-07-24T15:13:16;7.90;;;5.05;;
34767;SDS011;21755;43.608;1.236;2022-07-24T15:15:42;6.78;;;5.32;;
34767;SDS011;21755;43.608;1.236;2022-07-24T15:18:08;7.85;;;5.72;;
34767;SDS011;21755;43.608;1.236;2022-07-24T15:20:34;6.13;;;5.47;;
34767;SDS011;21755;43.608;1.236;2022-07-24T15:23:00;8.77;;;5.20;;
34767;SDS011;21755;43.608;1.236;2022-07-24T15:25:26;11.65;;;5.28;;
34767;SDS011;21755;43.608;1.236;2022-07-24T15:27:52;6.15;;;5.55;;
34767;SDS011;21755;43.608;1.236;2022-07-24T15:30:19;8.70;;;6.03;;
34767;SDS011;21755;43.608;1.236;2022-07-24T15:32:45;9.27;;;5.53;;
34767;SDS011;21755;43.608;1.236;2022-07-24T15:35:11;7.88;;;5.15;;
34767;SDS011;21755;43.608;1.236;2022-07-24T15:37:38;6.63;;;5.90;;